»·PEaware :: ASA1114 KPDX-KSEA

ASA1114 :: KPDX-KSEA

FLIGHT INFORMATION

Flight Status: Arrived
Operator:
Alaska Airlines
More flights by this operator :: More flights under this callsign
Pilot: Jeff S. (15817)
Aircraft: BOEING 737-800
(B738)
More flights by this aircraft type
Origin: KPDX Portland Intl
United States
Destination: KSEA Seattle-Tacoma Intl
United States
More flights between these airports :: More routes between these airports
Route: COUGA KRIEG HAWKZ7
File this flight plan on PilotEdge
Remarks: PBN / A1B1C1D1S1S2 NAV / RNVD1E2A1 REG / N806SB RMK / SIMBRIEF
Altitude:
(Current/Filed)
16,000ft
Speed:
(Current/Filed)
406kts
Departed: 26-Sep-18 07:27 PM
Arrived: 26-Sep-18 07:54 PM
Distance/Time
Traveled:
112nm/0:27
Distance/Time
To Go:
Arrived

Flight Plot

Page will automatically refresh every two minutes.

Flight plan parsing failed; only flown route is shown


Map Options




Map Legend


Flown Route
Filed Route
Departure Airport
Arrival Airport
Navaid (VOR, NDB)
Fix

Horizontal Profiles

Position Reports

Time Latitude Longitude Heading Altitude Ground
Speed
26-Sep-18 18:56 40.788165 -111.979148 85 4235ft 0kts
26-Sep-18 18:57 40.788165 -111.979148 85 4235ft 0kts
26-Sep-18 19:03 45.587528 -122.594306 51 37ft 0kts
26-Sep-18 19:04 45.587528 -122.594306 51 37ft 0kts
26-Sep-18 19:05 45.587528 -122.594306 51 37ft 0kts
26-Sep-18 19:06 45.587528 -122.594306 51 37ft 0kts
26-Sep-18 19:07 45.587528 -122.594306 51 37ft 0kts
26-Sep-18 19:08 45.587528 -122.594306 51 37ft 0kts
26-Sep-18 19:09 45.587528 -122.594306 51 37ft 0kts
26-Sep-18 19:10 45.587528 -122.594306 51 37ft 0kts
26-Sep-18 19:11 45.587528 -122.594306 51 37ft 0kts
26-Sep-18 19:12 45.587528 -122.594306 51 37ft 0kts
26-Sep-18 19:13 45.587528 -122.594306 51 37ft 0kts
26-Sep-18 19:14 45.587528 -122.594306 51 37ft 0kts
26-Sep-18 19:15 45.587528 -122.594306 51 37ft 0kts
26-Sep-18 19:16 45.587528 -122.594306 51 37ft 0kts
26-Sep-18 19:17 45.587528 -122.594306 51 37ft 0kts
26-Sep-18 19:18 45.587528 -122.594306 51 37ft 0kts
26-Sep-18 19:19 45.587528 -122.594306 51 37ft 0kts
26-Sep-18 19:20 45.587528 -122.594306 51 37ft 0kts
26-Sep-18 19:21 45.587472 -122.594410 52 37ft 2kts
26-Sep-18 19:22 45.587134 -122.595103 74 37ft 2kts
26-Sep-18 19:23 45.587199 -122.595710 118 37ft 0kts
26-Sep-18 19:24 45.587199 -122.595710 118 37ft 0kts
26-Sep-18 19:25 45.585917 -122.593084 129 37ft 18kts
26-Sep-18 19:26 45.583122 -122.587447 117 37ft 16kts
26-Sep-18 19:27 45.581661 -122.583651 128 37ft 3kts
26-Sep-18 19:28 45.581051 -122.585340 298 37ft 16kts
26-Sep-18 19:29 45.597545 -122.626707 299 700ft 189kts
26-Sep-18 19:30 45.624264 -122.699987 297 2719ft 239kts
26-Sep-18 19:31 45.657767 -122.791410 298 5333ft 279kts
26-Sep-18 19:32 45.695362 -122.891656 298 8371ft 295kts
26-Sep-18 19:33 45.756815 -122.960427 348 11545ft 295kts
26-Sep-18 19:34 45.839985 -122.931383 22 13351ft 338kts
26-Sep-18 19:35 45.920107 -122.864567 36 15829ft 349kts
26-Sep-18 19:36 45.998309 -122.779657 36 15924ft 390kts
26-Sep-18 19:37 46.088709 -122.694655 27 15914ft 394kts
26-Sep-18 19:38 46.189951 -122.672287 347 15923ft 393kts
26-Sep-18 19:39 46.291023 -122.724433 353 15955ft 393kts
26-Sep-18 19:40 46.398797 -122.725278 358 15944ft 398kts
26-Sep-18 19:41 46.511500 -122.729177 358 15934ft 422kts
26-Sep-18 19:42 46.625668 -122.733349 358 15299ft 408kts
26-Sep-18 19:43 46.737834 -122.737097 0 13044ft 382kts
26-Sep-18 19:44 46.828669 -122.684597 37 11217ft 336kts
26-Sep-18 19:45 46.897984 -122.607078 37 9975ft 303kts
26-Sep-18 19:46 46.960155 -122.536363 37 8818ft 286kts
26-Sep-18 19:47 47.019630 -122.468419 37 7706ft 282kts
26-Sep-18 19:48 47.078188 -122.401308 37 6660ft 276kts
26-Sep-18 19:49 47.135877 -122.339669 19 5640ft 272kts
26-Sep-18 19:50 47.205425 -122.333209 3 4959ft 275kts
26-Sep-18 19:51 47.268698 -122.317903 11 3691ft 227kts
26-Sep-18 19:52 47.325380 -122.312215 0 2668ft 206kts
26-Sep-18 19:53 47.373410 -122.311728 0 1705ft 165kts
26-Sep-18 19:54 47.412494 -122.311687 0 994ft 149kts
26-Sep-18 19:55 47.449261 -122.311107 0 436ft 133kts
26-Sep-18 19:56 47.459592 -122.309013 35 434ft 14kts
26-Sep-18 19:57 47.457126 -122.306216 180 434ft 19kts
26-Sep-18 19:58 47.451960 -122.306250 180 434ft 18kts
26-Sep-18 19:59 47.447713 -122.305831 115 434ft 9kts
26-Sep-18 20:00 47.448344 -122.303585 40 434ft 0kts

Navigation Log

Ident Type
Flight plan parsing failed, navigation log unavailable